Time;durP1;ratioP1;P1;durP2;ratioP2;P2;SDS_P1;SDS_P2;PMS_P1;PMS_P2;Temp;Humidity;BMP_temperature;BMP_pressure;BME280_temperature;BME280_humidity;BME280_pressure;Samples;Min_cycle;Max_cycle;Signal;HPM_P1;HPM_P2
2023/06/26 00:01:02;;;;;;;8.98;4.50;;;27.70;41.30;;;;;;6241470;28;20140;-74
2023/06/26 00:04:04;;;;;;;7.88;4.30;;;27.70;41.60;;;;;;6241870;28;20124;-74
2023/06/26 00:07:05;;;;;;;10.50;4.47;;;27.60;41.70;;;;;;6242845;28;20385;-74
2023/06/26 00:10:06;;;;;;;6.55;4.13;;;27.60;41.70;;;;;;6241898;28;20061;-74
2023/06/26 00:13:07;;;;;;;14.13;4.20;;;27.60;41.70;;;;;;6241607;28;20390;-74
2023/06/26 00:16:08;;;;;;;7.10;4.22;;;27.60;41.90;;;;;;6241412;28;20034;-75
2023/06/26 00:19:09;;;;;;;6.68;4.22;;;27.50;42.00;;;;;;6242574;28;20564;-74
2023/06/26 00:22:10;;;;;;;7.55;4.68;;;27.50;42.00;;;;;;6257168;28;20037;-74
2023/06/26 00:25:11;;;;;;;11.40;4.50;;;27.50;42.40;;;;;;6257798;28;20099;-74
2023/06/26 00:28:12;;;;;;;8.45;4.78;;;27.40;43.20;;;;;;6243069;28;20037;-74
2023/06/26 00:31:13;;;;;;;8.27;4.40;;;27.40;42.90;;;;;;6241117;28;20037;-75
2023/06/26 00:34:15;;;;;;;9.30;4.63;;;27.30;42.80;;;;;;6257459;28;20025;-74
2023/06/26 00:37:16;;;;;;;11.40;4.45;;;27.30;43.10;;;;;;6266865;28;20032;-75
2023/06/26 00:40:17;;;;;;;7.93;5.05;;;27.30;43.40;;;;;;6261644;28;20029;-74
2023/06/26 00:43:17;;;;;;;8.55;4.32;;;27.20;43.40;;;;;;6240459;28;20434;-74
2023/06/26 00:46:18;;;;;;;8.55;4.43;;;27.20;43.60;;;;;;6241240;28;20193;-74
2023/06/26 00:49:20;;;;;;;11.55;4.82;;;27.20;43.90;;;;;;6257062;28;20138;-75
2023/06/26 00:52:23;;;;;;;8.93;4.82;;;27.20;44.10;;;;;;6241600;28;20147;-75
2023/06/26 00:55:26;;;;;;;8.23;4.50;;;27.10;44.20;;;;;;6257417;28;20037;-74
2023/06/26 00:58:27;;;;;;;8.52;4.30;;;27.10;44.40;;;;;;6240433;28;20092;-74
2023/06/26 01:01:28;;;;;;;7.50;4.47;;;27.10;44.60;;;;;;6258492;28;20719;-74
2023/06/26 01:04:32;;;;;;;7.90;4.68;;;27.10;44.80;;;;;;6243295;28;20037;-73
2023/06/26 01:07:36;;;;;;;8.00;4.53;;;27.00;44.80;;;;;;6241163;28;20438;-74
2023/06/26 01:10:36;;;;;;;8.85;4.97;;;27.00;44.90;;;;;;6242683;28;20033;-78
2023/06/26 01:13:39;;;;;;;7.70;4.43;;;27.00;45.00;;;;;;6241884;28;20029;-73
2023/06/26 01:16:47;;;;;;;9.65;4.82;;;27.00;45.00;;;;;;6257243;28;20025;-74
2023/06/26 01:19:49;;;;;;;6.75;4.22;;;27.00;45.00;;;;;;6239840;28;20112;-75
2023/06/26 01:23:17;;;;;;;8.75;4.47;;;27.00;44.90;;;;;;6256373;28;20108;-74
2023/06/26 01:26:22;;;;;;;6.38;4.75;;;27.00;45.00;;;;;;6256545;28;20486;-76
2023/06/26 01:29:25;;;;;;;9.30;4.78;;;26.90;44.80;;;;;;6256596;28;20068;-75
2023/06/26 01:32:27;;;;;;;7.70;4.88;;;26.90;44.60;;;;;;6241591;28;20064;-75
2023/06/26 01:35:29;;;;;;;11.73;4.43;;;26.90;44.70;;;;;;6256778;28;20040;-76
2023/06/26 01:38:30;;;;;;;9.75;4.57;;;26.90;44.80;;;;;;6277314;28;20044;-74
2023/06/26 01:41:32;;;;;;;7.85;4.78;;;26.80;44.90;;;;;;6242849;28;20029;-73
2023/06/26 01:44:37;;;;;;;8.05;4.45;;;26.70;45.10;;;;;;6245331;28;20033;-74
2023/06/26 01:47:47;;;;;;;7.35;4.75;;;26.70;45.20;;;;;;6265033;28;20037;-74
2023/06/26 01:50:51;;;;;;;9.48;4.47;;;26.70;45.20;;;;;;6265845;28;20033;-75
2023/06/26 01:53:56;;;;;;;7.22;5.00;;;26.60;45.20;;;;;;6265867;28;20033;-74
2023/06/26 01:56:58;;;;;;;8.23;4.97;;;26.60;45.50;;;;;;6264506;28;20047;-74
2023/06/26 02:00:00;;;;;;;8.60;4.50;;;26.60;45.70;;;;;;6256331;28;20096;-74
2023/06/26 02:03:01;;;;;;;9.25;4.72;;;26.60;45.90;;;;;;6241926;28;20417;-74
2023/06/26 02:06:02;;;;;;;10.27;4.80;;;26.50;46.10;;;;;;6240533;28;20518;-75
2023/06/26 02:09:03;;;;;;;9.10;4.93;;;26.50;46.30;;;;;;6240297;28;20040;-74
2023/06/26 02:12:06;;;;;;;9.77;4.85;;;26.50;46.50;;;;;;6240466;28;20098;-74
2023/06/26 02:15:08;;;;;;;6.88;4.30;;;26.40;46.50;;;;;;6244155;28;20140;-74
2023/06/26 02:18:10;;;;;;;8.77;5.10;;;26.40;46.70;;;;;;6261573;28;20060;-74
2023/06/26 02:21:11;;;;;;;9.05;5.60;;;26.40;46.80;;;;;;6244458;28;20025;-74
2023/06/26 02:24:12;;;;;;;8.90;4.68;;;26.30;46.90;;;;;;6261129;28;20049;-74
2023/06/26 02:27:13;;;;;;;11.82;5.43;;;26.30;46.90;;;;;;6261123;28;20045;-74
2023/06/26 02:30:14;;;;;;;9.13;5.20;;;26.30;47.10;;;;;;6245761;28;20029;-75
2023/06/26 02:33:14;;;;;;;9.77;5.05;;;26.30;47.20;;;;;;6260595;28;20087;-74
2023/06/26 02:36:15;;;;;;;8.27;4.93;;;26.20;47.20;;;;;;6244381;28;20041;-74
2023/06/26 02:39:16;;;;;;;7.78;4.95;;;26.20;47.20;;;;;;6273266;28;20037;-77
2023/06/26 02:42:17;;;;;;;8.18;4.78;;;26.20;47.40;;;;;;6260231;28;20033;-74
2023/06/26 02:45:18;;;;;;;9.15;5.28;;;26.10;47.40;;;;;;6245098;28;20254;-75
2023/06/26 02:48:18;;;;;;;10.20;5.10;;;26.10;47.40;;;;;;6261397;28;20034;-75
2023/06/26 02:51:19;;;;;;;6.53;4.60;;;26.10;47.60;;;;;;6243140;28;20025;-75
2023/06/26 02:54:21;;;;;;;8.57;5.20;;;26.00;47.30;;;;;;6259542;28;20117;-74
2023/06/26 02:57:25;;;;;;;8.70;5.18;;;26.00;47.40;;;;;;6259739;28;20030;-76
2023/06/26 03:00:29;;;;;;;7.85;4.78;;;26.00;47.50;;;;;;6243512;28;20095;-73
2023/06/26 03:03:40;;;;;;;7.25;4.75;;;26.00;47.50;;;;;;6242736;28;20742;-74
2023/06/26 03:06:41;;;;;;;10.40;5.40;;;25.90;47.60;;;;;;6243039;28;20037;-74
2023/06/26 03:09:41;;;;;;;9.43;5.07;;;25.90;47.80;;;;;;6243215;28;20179;-74
2023/06/26 03:12:43;;;;;;;7.80;4.65;;;25.80;47.90;;;;;;6242639;28;20351;-74
2023/06/26 03:15:45;;;;;;;9.48;4.88;;;25.80;48.00;;;;;;6259649;28;20041;-72
2023/06/26 03:18:46;;;;;;;8.48;4.80;;;25.70;48.00;;;;;;6242540;28;20136;-74
2023/06/26 03:21:47;;;;;;;9.90;5.25;;;25.70;48.10;;;;;;6242504;28;20445;-74
2023/06/26 03:24:49;;;;;;;15.77;4.88;;;25.70;48.20;;;;;;6241929;28;20048;-75
2023/06/26 03:27:50;;;;;;;11.35;5.40;;;25.70;48.30;;;;;;6242466;28;20070;-75
2023/06/26 03:30:53;;;;;;;10.48;4.97;;;25.70;48.40;;;;;;6244917;28;20048;-75
2023/06/26 03:33:53;;;;;;;14.20;5.28;;;25.70;48.50;;;;;;6249942;28;20033;-75
2023/06/26 03:36:54;;;;;;;12.82;5.32;;;25.60;48.60;;;;;;6248984;28;20104;-76
2023/06/26 03:39:55;;;;;;;11.55;5.65;;;25.70;48.70;;;;;;6244105;28;20037;-74
2023/06/26 03:42:57;;;;;;;8.60;5.07;;;25.70;48.70;;;;;;6258933;28;20136;-75
2023/06/26 03:45:58;;;;;;;7.20;4.70;;;25.70;48.70;;;;;;6242574;28;20037;-74
2023/06/26 03:49:00;;;;;;;8.07;5.07;;;25.70;48.90;;;;;;6247067;28;20045;-74
2023/06/26 03:52:01;;;;;;;9.10;5.40;;;25.70;49.00;;;;;;6265395;28;20496;-76
2023/06/26 03:55:02;;;;;;;9.75;5.60;;;25.60;49.00;;;;;;6242936;28;20147;-74
2023/06/26 03:58:05;;;;;;;20.63;5.55;;;25.60;49.00;;;;;;6242051;28;20117;-74
2023/06/26 04:01:06;;;;;;;12.32;5.30;;;25.60;49.10;;;;;;6242646;28;20034;-74
2023/06/26 04:04:07;;;;;;;10.43;5.30;;;25.60;49.30;;;;;;6242103;28;20045;-75
2023/06/26 04:07:08;;;;;;;8.82;5.30;;;25.60;49.30;;;;;;6258722;28;20382;-76
2023/06/26 04:10:11;;;;;;;9.02;5.10;;;25.50;49.20;;;;;;6242333;28;20562;-75
2023/06/26 04:13:11;;;;;;;9.73;5.00;;;25.50;49.30;;;;;;6257946;28;20045;-76
2023/06/26 04:16:13;;;;;;;9.85;5.00;;;25.40;49.70;;;;;;6243050;28;20061;-76
2023/06/26 04:19:14;;;;;;;8.20;4.70;;;25.40;50.00;;;;;;6242029;28;20072;-74
2023/06/26 04:22:15;;;;;;;6.93;4.88;;;25.40;50.30;;;;;;6242565;28;20491;-75
2023/06/26 04:25:17;;;;;;;9.73;5.65;;;25.30;50.50;;;;;;6243913;28;20073;-74
2023/06/26 04:28:19;;;;;;;9.35;5.53;;;25.30;50.50;;;;;;6251319;28;20113;-76
2023/06/26 04:31:22;;;;;;;8.57;5.00;;;25.30;50.60;;;;;;6245204;28;20053;-73
2023/06/26 04:34:22;;;;;;;10.13;5.78;;;25.30;50.60;;;;;;6247939;28;20085;-75
2023/06/26 04:37:24;;;;;;;7.85;4.85;;;25.20;50.50;;;;;;6267641;28;20172;-75
2023/06/26 04:40:25;;;;;;;13.13;5.38;;;25.20;50.40;;;;;;6243530;28;20030;-75
2023/06/26 04:43:26;;;;;;;7.90;4.93;;;25.20;50.50;;;;;;6240882;28;20144;-76
2023/06/26 04:46:27;;;;;;;11.52;5.80;;;25.20;50.70;;;;;;6242214;28;20052;-75
2023/06/26 04:49:28;;;;;;;11.88;5.35;;;25.20;50.70;;;;;;6257689;28;20037;-74
2023/06/26 04:52:29;;;;;;;8.07;5.18;;;25.20;50.70;;;;;;6241659;28;20102;-76
2023/06/26 04:55:30;;;;;;;11.43;5.60;;;25.20;50.80;;;;;;6241648;28;20115;-74
2023/06/26 04:58:31;;;;;;;9.13;5.35;;;25.20;50.80;;;;;;6240574;28;20092;-76
2023/06/26 05:01:32;;;;;;;8.82;5.13;;;25.20;50.90;;;;;;6223989;28;20049;-76
2023/06/26 05:04:32;;;;;;;8.55;4.97;;;25.20;50.90;;;;;;6256901;28;20577;-76
2023/06/26 05:07:34;;;;;;;10.98;4.97;;;25.10;50.90;;;;;;6240203;28;20084;-74
2023/06/26 05:10:35;;;;;;;9.23;5.57;;;25.10;50.90;;;;;;6241712;28;20079;-74
2023/06/26 05:13:36;;;;;;;15.23;5.18;;;25.20;50.90;;;;;;6255789;28;20056;-75
2023/06/26 05:16:37;;;;;;;12.88;4.97;;;25.30;50.90;;;;;;6256853;28;20033;-74
2023/06/26 05:19:38;;;;;;;9.32;5.07;;;25.30;50.80;;;;;;6241937;28;20040;-73
2023/06/26 05:22:40;;;;;;;9.48;5.35;;;25.40;50.50;;;;;;6256450;28;20120;-75
2023/06/26 05:25:41;;;;;;;10.35;5.60;;;25.50;50.40;;;;;;6239969;28;20672;-76
2023/06/26 05:28:48;;;;;;;11.98;5.72;;;25.50;50.30;;;;;;6256998;28;20061;-74
2023/06/26 05:31:51;;;;;;;7.93;4.82;;;25.50;50.20;;;;;;6264962;28;20105;-75
2023/06/26 05:34:54;;;;;;;15.32;5.55;;;25.60;50.10;;;;;;6266636;28;20037;-75
2023/06/26 05:37:57;;;;;;;9.27;5.28;;;25.70;50.00;;;;;;6250581;28;20461;-76
2023/06/26 05:40:58;;;;;;;12.63;5.82;;;25.80;49.90;;;;;;6241398;28;20029;-75
2023/06/26 05:43:59;;;;;;;8.65;5.63;;;25.80;49.70;;;;;;6241384;28;20049;-72
2023/06/26 05:47:00;;;;;;;11.55;5.88;;;25.90;49.70;;;;;;6216080;28;20033;-75
2023/06/26 05:50:01;;;;;;;13.70;6.60;;;25.90;49.50;;;;;;6231788;28;20042;-74
2023/06/26 05:53:03;;;;;;;11.60;6.30;;;26.00;49.40;;;;;;6229112;28;20044;-75
2023/06/26 05:56:04;;;;;;;12.38;5.38;;;26.10;49.30;;;;;;6241971;28;20033;-76
2023/06/26 05:59:07;;;;;;;9.82;5.78;;;26.10;49.20;;;;;;6258477;28;20033;-74
2023/06/26 06:02:08;;;;;;;18.95;6.25;;;26.10;49.10;;;;;;6256185;28;20037;-74
2023/06/26 06:05:09;;;;;;;7.97;5.15;;;26.10;49.10;;;;;;6241989;28;20517;-75
2023/06/26 06:08:10;;;;;;;10.68;6.03;;;26.20;49.20;;;;;;6239669;28;20052;-75
2023/06/26 06:11:11;;;;;;;13.48;5.95;;;26.20;49.00;;;;;;6241633;28;20040;-75
2023/06/26 06:14:13;;;;;;;10.95;6.68;;;26.30;49.00;;;;;;6241103;28;20044;-75
2023/06/26 06:17:13;;;;;;;9.57;5.88;;;26.40;48.80;;;;;;6239914;28;20427;-75
2023/06/26 06:20:14;;;;;;;12.70;5.50;;;26.50;48.80;;;;;;6239524;28;20026;-74
2023/06/26 06:23:15;;;;;;;12.98;5.82;;;26.50;48.60;;;;;;6238936;28;20032;-74
2023/06/26 06:26:16;;;;;;;11.73;5.43;;;26.60;48.60;;;;;;6254779;28;20068;-74
2023/06/26 06:29:18;;;;;;;10.38;5.43;;;26.70;48.40;;;;;;6255378;28;20124;-75
2023/06/26 06:32:19;;;;;;;14.43;6.05;;;26.80;48.20;;;;;;6238507;28;20037;-74
2023/06/26 06:35:20;;;;;;;12.77;5.50;;;26.90;48.00;;;;;;6240443;28;20049;-74
2023/06/26 06:38:21;;;;;;;10.75;5.40;;;27.00;47.90;;;;;;6253454;28;20044;-74
2023/06/26 06:41:22;;;;;;;10.68;5.15;;;27.00;47.50;;;;;;6255052;28;20033;-75
2023/06/26 06:44:23;;;;;;;11.80;5.25;;;27.10;47.40;;;;;;6255327;28;20067;-75
2023/06/26 06:47:23;;;;;;;13.98;5.68;;;27.20;47.30;;;;;;6239576;28;20212;-76
2023/06/26 06:50:25;;;;;;;11.40;5.03;;;27.30;47.00;;;;;;6239607;28;20040;-74
2023/06/26 06:53:26;;;;;;;8.82;5.15;;;27.40;46.50;;;;;;6241153;28;20521;-74
2023/06/26 06:56:27;;;;;;;12.32;5.53;;;27.40;46.10;;;;;;6238953;28;20568;-75
2023/06/26 06:59:28;;;;;;;11.68;5.38;;;27.50;45.80;;;;;;6258537;28;20109;-74
2023/06/26 07:02:29;;;;;;;9.75;4.95;;;27.60;45.30;;;;;;6244529;28;20039;-76
2023/06/26 07:05:29;;;;;;;8.80;4.57;;;27.70;45.30;;;;;;6244755;28;20029;-74
2023/06/26 07:08:30;;;;;;;12.45;4.72;;;27.70;44.80;;;;;;6243139;28;20068;-74
2023/06/26 07:11:31;;;;;;;12.45;5.03;;;27.70;44.50;;;;;;6244816;28;20034;-75
2023/06/26 07:14:32;;;;;;;8.63;5.10;;;27.80;44.50;;;;;;6242890;28;20120;-75
2023/06/26 07:17:34;;;;;;;9.07;5.32;;;27.80;44.50;;;;;;6242663;28;20029;-75
2023/06/26 07:20:35;;;;;;;8.93;5.20;;;27.90;44.30;;;;;;6243083;28;20065;-75
2023/06/26 07:23:36;;;;;;;15.35;5.03;;;27.90;44.10;;;;;;6242308;28;20164;-74
2023/06/26 07:26:37;;;;;;;8.93;4.65;;;28.10;44.10;;;;;;6258935;28;20029;-74
2023/06/26 07:29:38;;;;;;;9.77;4.78;;;28.20;44.00;;;;;;6244782;28;20482;-74
2023/06/26 07:32:40;;;;;;;11.35;4.82;;;28.30;43.60;;;;;;6243349;28;20782;-73
2023/06/26 07:35:41;;;;;;;11.70;5.20;;;28.40;43.40;;;;;;6265357;28;20490;-75
2023/06/26 07:38:42;;;;;;;8.52;5.10;;;28.50;43.20;;;;;;6266401;28;20052;-74
2023/06/26 07:41:44;;;;;;;9.25;5.45;;;28.60;43.10;;;;;;6260848;28;20379;-75
2023/06/26 07:44:44;;;;;;;19.75;5.90;;;28.70;42.80;;;;;;6243751;28;20095;-74
2023/06/26 07:47:45;;;;;;;9.70;4.97;;;28.80;42.70;;;;;;6243046;28;20056;-77
2023/06/26 07:50:46;;;;;;;12.52;5.28;;;28.90;42.70;;;;;;6241833;28;20033;-74
2023/06/26 07:53:47;;;;;;;11.55;5.43;;;28.90;42.70;;;;;;6243264;28;20041;-73
2023/06/26 07:56:59;;;;;;;8.68;5.10;;;29.10;42.60;;;;;;6243759;28;20056;-76
2023/06/26 08:00:00;;;;;;;11.38;5.47;;;29.20;42.40;;;;;;6259390;28;20048;-74
2023/06/26 08:03:01;;;;;;;10.05;5.20;;;29.40;42.10;;;;;;6242229;28;20143;-75
2023/06/26 08:06:03;;;;;;;11.32;4.93;;;29.40;41.80;;;;;;6244058;28;20053;-75
2023/06/26 08:09:04;;;;;;;9.82;5.72;;;29.50;41.60;;;;;;6243692;28;20042;-74
2023/06/26 08:12:06;;;;;;;7.85;4.88;;;29.70;41.40;;;;;;6258419;28;20037;-77
2023/06/26 08:15:07;;;;;;;11.80;5.78;;;29.80;41.30;;;;;;6244499;28;20087;-74
2023/06/26 08:18:08;;;;;;;8.02;4.70;;;29.90;41.30;;;;;;6241788;28;20104;-74
2023/06/26 08:21:09;;;;;;;9.65;5.07;;;29.90;41.10;;;;;;6241274;28;20037;-76
2023/06/26 08:24:11;;;;;;;12.25;6.15;;;30.10;41.00;;;;;;6258161;28;20064;-75
2023/06/26 08:27:12;;;;;;;10.85;5.07;;;30.10;40.70;;;;;;6257603;28;20037;-75
2023/06/26 08:30:13;;;;;;;9.38;5.15;;;30.30;40.60;;;;;;6242419;28;20037;-75
2023/06/26 08:33:13;;;;;;;7.30;4.95;;;30.30;40.50;;;;;;6241863;28;20029;-76
2023/06/26 08:36:15;;;;;;;7.65;4.93;;;30.40;40.40;;;;;;6242693;28;20072;-75
2023/06/26 08:39:16;;;;;;;9.32;5.40;;;30.60;40.40;;;;;;6255106;28;20045;-75
2023/06/26 08:42:17;;;;;;;9.57;5.40;;;30.70;40.20;;;;;;6257408;28;20482;-75
2023/06/26 08:45:17;;;;;;;9.98;5.35;;;30.90;40.10;;;;;;6240899;28;20077;-73
2023/06/26 08:48:21;;;;;;;8.25;4.95;;;31.10;39.90;;;;;;6240798;28;20119;-75
2023/06/26 08:51:28;;;;;;;6.20;4.63;;;31.20;39.70;;;;;;6257478;28;20037;-75
2023/06/26 08:54:36;;;;;;;7.13;4.60;;;31.40;39.60;;;;;;6240566;28;20136;-76
2023/06/26 08:57:38;;;;;;;16.05;5.45;;;31.40;39.50;;;;;;6242703;28;20029;-74
2023/06/26 09:00:39;;;;;;;9.10;5.40;;;31.50;39.40;;;;;;6242168;28;20032;-76
2023/06/26 09:03:41;;;;;;;7.53;4.68;;;31.50;39.30;;;;;;6241990;28;20033;-78
2023/06/26 09:06:44;;;;;;;7.45;4.78;;;31.50;39.30;;;;;;6257018;28;20033;-76
2023/06/26 09:09:45;;;;;;;8.10;5.47;;;31.60;39.40;;;;;;6241071;28;20060;-74
2023/06/26 09:12:47;;;;;;;10.07;5.03;;;31.60;39.20;;;;;;6241453;28;20026;-75
2023/06/26 09:15:48;;;;;;;10.23;5.50;;;31.70;39.20;;;;;;6241932;28;20104;-77
2023/06/26 09:18:51;;;;;;;12.13;5.43;;;31.80;39.00;;;;;;6257068;28;20041;-77
2023/06/26 09:21:54;;;;;;;14.30;5.57;;;31.80;38.70;;;;;;6239408;28;20063;-75
2023/06/26 09:24:55;;;;;;;9.77;5.35;;;31.90;38.60;;;;;;6241249;28;20030;-76
2023/06/26 09:27:57;;;;;;;9.50;5.25;;;32.00;38.60;;;;;;6259690;28;20094;-75
2023/06/26 09:31:04;;;;;;;8.55;5.40;;;32.00;38.60;;;;;;6275969;28;20073;-75
2023/06/26 09:34:06;;;;;;;6.18;4.50;;;32.10;38.50;;;;;;6266919;28;20494;-78
2023/06/26 09:37:06;;;;;;;7.82;4.78;;;32.20;38.40;;;;;;6281134;28;20056;-74
2023/06/26 09:40:08;;;;;;;9.98;5.70;;;32.20;38.40;;;;;;6244876;28;20033;-76
2023/06/26 09:43:12;;;;;;;9.48;5.00;;;32.30;38.30;;;;;;6241100;28;20044;-75
2023/06/26 09:46:17;;;;;;;9.50;5.30;;;32.30;38.40;;;;;;6241806;28;20063;-76
2023/06/26 09:49:18;;;;;;;6.70;5.00;;;32.30;38.30;;;;;;6256301;28;20037;-76
2023/06/26 09:52:19;;;;;;;16.20;5.25;;;32.30;38.20;;;;;;6255879;28;20041;-74
2023/06/26 09:55:23;;;;;;;9.77;5.18;;;32.40;38.20;;;;;;6239617;28;20049;-74
2023/06/26 09:58:26;;;;;;;7.65;4.60;;;32.40;38.10;;;;;;6239601;28;20032;-76
2023/06/26 10:01:28;;;;;;;9.35;5.00;;;32.50;38.10;;;;;;6240000;28;20036;-75
2023/06/26 10:04:30;;;;;;;9.73;4.57;;;32.60;38.00;;;;;;6239423;28;20072;-76
2023/06/26 10:07:31;;;;;;;8.70;5.20;;;32.60;37.90;;;;;;6239574;28;20037;-75
2023/06/26 10:10:35;;;;;;;14.00;5.38;;;32.70;37.90;;;;;;6242469;28;20774;-76
2023/06/26 10:13:42;;;;;;;7.70;5.00;;;32.70;38.80;;;;;;6264609;28;20060;-74
2023/06/26 10:16:46;;;;;;;10.13;5.03;;;32.80;38.30;;;;;;6265770;28;20037;-74
2023/06/26 10:19:48;;;;;;;11.07;4.68;;;32.80;38.30;;;;;;6264144;28;20029;-75
2023/06/26 10:22:49;;;;;;;10.00;5.00;;;32.90;38.10;;;;;;6290612;28;20033;-75
2023/06/26 10:25:54;;;;;;;8.05;4.72;;;32.90;38.00;;;;;;6285818;28;20045;-75
2023/06/26 10:28:57;;;;;;;11.15;4.80;;;33.00;37.70;;;;;;6243104;28;20095;-76
2023/06/26 10:32:00;;;;;;;7.28;4.80;;;32.90;37.70;;;;;;6256989;28;20108;-75
2023/06/26 10:35:03;;;;;;;8.63;4.60;;;33.00;37.80;;;;;;6245049;28;20185;-75
2023/06/26 10:38:04;;;;;;;8.30;4.32;;;33.10;37.80;;;;;;6257760;28;20052;-75
2023/06/26 10:41:11;;;;;;;9.63;4.38;;;33.10;38.10;;;;;;6245401;28;20026;-75
2023/06/26 10:44:16;;;;;;;;;;;33.10;38.20;;;;;;6243939;28;20034;-75
2023/06/26 10:47:36;;;;;;;15.15;4.60;;;33.10;38.40;;;;;;6243806;28;19967;-75
2023/06/26 10:50:37;;;;;;;8.20;4.63;;;33.10;38.60;;;;;;6260281;28;20037;-75
2023/06/26 10:53:38;;;;;;;11.15;4.63;;;33.20;38.50;;;;;;6242978;28;20075;-74
2023/06/26 10:56:44;;;;;;;18.58;4.88;;;33.30;38.50;;;;;;6260120;28;20029;-75
2023/06/26 10:59:45;;;;;;;10.90;4.82;;;33.30;38.40;;;;;;6243170;28;20510;-75
2023/06/26 11:02:51;;;;;;;8.23;4.88;;;33.30;38.20;;;;;;6259914;28;20029;-75
2023/06/26 11:06:29;;;;;;;9.70;4.40;;;33.40;38.10;;;;;;6244861;28;20030;-76
2023/06/26 11:09:30;;;;;;;11.73;4.13;;;33.50;38.00;;;;;;6220193;28;20038;-74
2023/06/26 11:12:42;;;;;;;9.65;4.57;;;34.30;36.90;;;;;;6235622;28;20030;-76
2023/06/26 11:15:44;;;;;;;6.10;4.22;;;35.10;35.50;;;;;;6219939;28;20065;-76
2023/06/26 11:18:45;;;;;;;16.23;4.55;;;35.60;34.50;;;;;;6235345;28;20026;-73
2023/06/26 11:21:47;;;;;;;6.53;4.05;;;36.10;33.80;;;;;;6220845;28;20133;-76
2023/06/26 11:24:50;;;;;;;6.70;4.03;;;36.50;33.10;;;;;;6243370;28;20049;-76
2023/06/26 11:27:53;;;;;;;8.30;4.10;;;36.90;32.50;;;;;;6244630;28;20164;-75
2023/06/26 11:30:54;;;;;;;7.18;4.43;;;37.30;31.90;;;;;;6244811;28;20044;-75
2023/06/26 11:33:56;;;;;;;7.70;4.57;;;37.70;31.30;;;;;;6243751;28;20034;-76
2023/06/26 11:36:58;;;;;;;11.30;4.32;;;37.90;30.90;;;;;;6242216;28;20253;-76
2023/06/26 11:39:58;;;;;;;7.30;4.53;;;38.20;30.50;;;;;;6243661;28;20459;-76
2023/06/26 11:43:00;;;;;;;12.90;4.30;;;38.40;30.10;;;;;;6242399;28;20048;-75
2023/06/26 11:46:01;;;;;;;7.25;4.13;;;38.60;29.80;;;;;;6243316;28;20025;-77
2023/06/26 11:49:06;;;;;;;5.80;4.28;;;38.80;29.70;;;;;;6245517;28;20453;-76
2023/06/26 11:52:07;;;;;;;10.25;4.30;;;38.90;29.40;;;;;;6245375;28;20520;-74
2023/06/26 11:55:08;;;;;;;13.32;4.25;;;39.00;29.30;;;;;;6244975;28;20139;-75
2023/06/26 11:58:09;;;;;;;15.02;4.35;;;39.10;29.10;;;;;;6243901;28;20052;-75
2023/06/26 12:01:16;;;;;;;12.65;4.35;;;39.10;29.00;;;;;;6241772;28;20056;-74
2023/06/26 12:04:19;;;;;;;9.90;4.82;;;39.00;28.90;;;;;;6242920;28;20039;-75
2023/06/26 12:07:20;;;;;;;4.97;3.92;;;38.80;29.00;;;;;;6258615;28;20116;-76
2023/06/26 12:10:21;;;;;;;6.35;4.05;;;38.60;29.20;;;;;;6243614;28;20037;-76
2023/06/26 12:13:22;;;;;;;9.18;4.25;;;38.70;29.20;;;;;;6258217;28;20191;-76
2023/06/26 12:16:23;;;;;;;10.48;4.47;;;38.80;29.00;;;;;;6257940;28;20541;-75
2023/06/26 12:19:28;;;;;;;11.40;4.15;;;39.00;28.70;;;;;;6242844;28;20084;-74
2023/06/26 12:22:35;;;;;;;10.52;4.47;;;39.20;28.50;;;;;;6224455;28;20025;-76
2023/06/26 12:25:36;;;;;;;10.57;4.15;;;39.40;28.40;;;;;;6242329;28;20060;-75
2023/06/26 12:28:37;;;;;;;8.80;4.55;;;39.30;28.20;;;;;;6241101;28;20033;-74
2023/06/26 12:31:42;;;;;;;6.88;4.72;;;39.50;28.30;;;;;;6240687;28;20057;-75
2023/06/26 12:34:49;;;;;;;10.88;4.38;;;39.70;28.00;;;;;;6242337;28;20069;-75
2023/06/26 12:37:49;;;;;;;9.77;4.10;;;40.00;27.60;;;;;;6272767;28;20036;-74
2023/06/26 12:40:50;;;;;;;17.30;4.93;;;40.20;27.40;;;;;;6243343;28;20478;-75
2023/06/26 12:43:56;;;;;;;7.32;3.95;;;40.30;27.20;;;;;;6257255;28;20037;-75
2023/06/26 12:47:01;;;;;;;11.73;4.03;;;40.10;27.10;;;;;;6256597;28;20037;-75
2023/06/26 12:50:06;;;;;;;8.95;4.57;;;40.00;27.30;;;;;;6242433;28;20063;-75
2023/06/26 12:53:06;;;;;;;5.80;4.20;;;39.80;27.30;;;;;;6240742;28;20034;-76
2023/06/26 12:56:08;;;;;;;8.95;4.38;;;39.70;27.30;;;;;;6242167;28;20040;-76
2023/06/26 12:59:09;;;;;;;12.07;4.63;;;39.90;27.20;;;;;;6244249;28;20073;-75
2023/06/26 13:02:13;;;;;;;9.35;4.75;;;40.10;27.00;;;;;;6265808;28;20032;-76
2023/06/26 13:05:14;;;;;;;10.23;4.68;;;40.40;26.70;;;;;;6265725;28;20472;-74
2023/06/26 13:08:18;;;;;;;6.70;4.15;;;40.50;26.40;;;;;;6266488;28;20029;-75
2023/06/26 13:11:19;;;;;;;13.00;4.50;;;40.60;26.40;;;;;;6281287;28;20229;-75
2023/06/26 13:14:20;;;;;;;6.85;4.53;;;40.50;26.30;;;;;;6261433;28;20041;-76
2023/06/26 13:17:21;;;;;;;8.52;4.47;;;40.40;26.50;;;;;;6241937;28;20355;-77
2023/06/26 13:20:22;;;;;;;12.65;5.15;;;40.50;26.50;;;;;;6223017;28;20025;-74
2023/06/26 13:23:23;;;;;;;8.05;4.50;;;40.60;26.40;;;;;;6240024;28;20120;-76
2023/06/26 13:26:26;;;;;;;7.65;4.75;;;40.90;26.20;;;;;;6240989;28;20073;-74
2023/06/26 13:29:27;;;;;;;12.15;4.57;;;41.50;25.70;;;;;;6241309;28;20037;-75
2023/06/26 13:32:27;;;;;;;8.80;4.32;;;41.90;25.10;;;;;;6239392;28;20036;-76
2023/06/26 13:35:28;;;;;;;13.63;4.38;;;42.20;24.90;;;;;;6240934;28;20541;-74
2023/06/26 13:38:29;;;;;;;7.97;4.20;;;42.30;24.70;;;;;;6253606;28;20039;-74
2023/06/26 13:41:30;;;;;;;9.73;4.13;;;42.50;24.60;;;;;;6255207;28;20043;-75
2023/06/26 13:44:31;;;;;;;7.95;4.15;;;42.50;24.50;;;;;;6240821;28;20508;-75
2023/06/26 13:47:34;;;;;;;10.45;4.63;;;42.50;24.40;;;;;;6239300;28;20057;-76
2023/06/26 13:50:35;;;;;;;10.82;4.57;;;42.50;24.40;;;;;;6256390;28;20052;-75
2023/06/26 13:53:36;;;;;;;12.20;4.03;;;43.00;24.20;;;;;;6240492;28;20204;-75
2023/06/26 13:56:37;;;;;;;10.27;4.40;;;43.60;23.70;;;;;;6253106;28;20017;-76
2023/06/26 13:59:39;;;;;;;9.48;4.35;;;44.10;23.30;;;;;;6280801;28;20040;-75
2023/06/26 14:02:40;;;;;;;8.23;4.68;;;44.20;23.10;;;;;;6264451;28;20043;-75
2023/06/26 14:05:41;;;;;;;8.07;4.20;;;44.00;23.00;;;;;;6284057;28;20060;-74
2023/06/26 14:08:42;;;;;;;6.53;4.22;;;43.90;23.00;;;;;;6268108;28;20131;-76
2023/06/26 14:11:43;;;;;;;11.65;4.78;;;43.60;23.10;;;;;;6268640;28;20064;-76
2023/06/26 14:14:44;;;;;;;5.78;4.38;;;43.60;23.20;;;;;;6252178;28;20120;-75
2023/06/26 14:17:45;;;;;;;8.75;4.70;;;43.50;23.10;;;;;;6270199;28;20422;-74
2023/06/26 14:20:47;;;;;;;14.23;4.63;;;43.80;23.00;;;;;;6286051;28;20094;-75
2023/06/26 14:23:47;;;;;;;6.40;3.90;;;44.20;22.60;;;;;;6269479;28;20523;-74
2023/06/26 14:26:48;;;;;;;11.73;4.78;;;44.20;22.30;;;;;;6271699;28;20120;-76
2023/06/26 14:29:49;;;;;;;8.95;4.75;;;44.00;22.40;;;;;;6243281;28;20037;-74
2023/06/26 14:32:51;;;;;;;10.55;4.38;;;43.80;22.50;;;;;;6244474;28;20033;-74
2023/06/26 14:35:52;;;;;;;6.82;4.47;;;43.60;22.60;;;;;;6260145;28;20037;-75
2023/06/26 14:38:53;;;;;;;7.50;4.38;;;43.50;22.70;;;;;;6257570;28;20037;-75
2023/06/26 14:41:54;;;;;;;9.13;4.05;;;43.20;22.70;;;;;;6244824;28;20718;-75
2023/06/26 14:44:55;;;;;;;7.93;4.22;;;43.30;22.80;;;;;;6243278;28;20733;-76
2023/06/26 14:47:56;;;;;;;10.05;3.85;;;43.40;22.80;;;;;;6243612;28;20034;-75
2023/06/26 14:50:57;;;;;;;5.82;4.05;;;43.70;22.40;;;;;;6251036;28;20033;-75
2023/06/26 14:53:58;;;;;;;6.18;4.20;;;43.70;22.20;;;;;;6273075;28;20037;-73
2023/06/26 14:57:00;;;;;;;5.78;4.30;;;43.60;22.40;;;;;;6228433;28;20078;-74
2023/06/26 15:00:01;;;;;;;9.27;4.28;;;43.20;22.50;;;;;;6259355;28;20131;-75
2023/06/26 15:03:03;;;;;;;7.05;4.35;;;43.00;22.70;;;;;;6259119;28;20033;-75
2023/06/26 15:06:05;;;;;;;7.82;4.35;;;43.10;22.60;;;;;;6244415;28;20025;-74
2023/06/26 15:09:05;;;;;;;6.95;4.40;;;43.30;22.50;;;;;;6259080;28;20041;-74
2023/06/26 15:12:07;;;;;;;9.30;3.92;;;43.20;22.50;;;;;;6243702;28;20064;-77
2023/06/26 15:15:08;;;;;;;9.13;4.40;;;43.30;22.50;;;;;;6242180;28;20081;-74
2023/06/26 15:18:09;;;;;;;5.18;4.10;;;43.40;22.30;;;;;;6242660;28;20048;-75
2023/06/26 15:21:10;;;;;;;5.60;4.03;;;43.20;22.40;;;;;;6242947;28;20488;-75
2023/06/26 15:24:11;;;;;;;6.57;4.32;;;43.00;22.50;;;;;;6244020;28;20191;-75
2023/06/26 15:27:13;;;;;;;6.78;4.05;;;42.80;22.50;;;;;;6243147;28;20037;-75
2023/06/26 15:30:14;;;;;;;6.93;4.28;;;42.60;22.70;;;;;;6244087;28;20037;-75
2023/06/26 15:33:15;;;;;;;10.50;4.22;;;42.60;22.60;;;;;;6258301;28;20460;-76
2023/06/26 15:36:16;;;;;;;7.90;4.00;;;42.50;22.70;;;;;;6242296;28;20041;-76
2023/06/26 15:39:17;;;;;;;5.38;3.92;;;42.20;22.80;;;;;;6233938;28;20034;-74
2023/06/26 15:42:18;;;;;;;6.85;4.68;;;42.00;23.10;;;;;;6234033;28;20123;-74